createdAt,value
2019-04-20T00:01:33.613Z,38.53
2019-04-20T00:04:09.905Z,39.20
2019-04-20T00:06:50.116Z,34.55
2019-04-20T00:09:28.663Z,41.02
2019-04-20T00:12:09.016Z,41.68
2019-04-20T00:14:41.284Z,42.10
2019-04-20T00:17:18.342Z,37.42
2019-04-20T00:19:57.739Z,40.67
2019-04-20T00:22:48.588Z,37.00
2019-04-20T00:25:42.910Z,37.75
2019-04-20T00:28:30.207Z,39.18
2019-04-20T00:31:07.275Z,40.58
2019-04-20T00:33:39.659Z,42.17
2019-04-20T00:36:05.341Z,43.02
2019-04-20T00:38:48.350Z,39.30
2019-04-20T00:41:21.240Z,35.95
2019-04-20T00:44:04.751Z,37.17
2019-04-20T00:46:51.301Z,36.23
2019-04-20T00:49:30.438Z,38.90
2019-04-20T00:52:18.864Z,36.75
2019-04-20T00:54:31.026Z,35.10
2019-04-20T00:57:19.688Z,37.38
2019-04-20T01:00:09.373Z,40.78
2019-04-20T01:02:36.126Z,36.90
2019-04-20T01:05:17.979Z,39.55
2019-04-20T01:08:12.916Z,36.75
2019-04-20T01:10:54.166Z,37.70
2019-04-20T01:13:28.801Z,36.73
2019-04-20T01:16:14.681Z,36.42
2019-04-20T01:18:47.082Z,38.05
2019-04-20T01:21:26.511Z,33.60
2019-04-20T01:24:03.495Z,36.45
2019-04-20T01:26:43.703Z,34.03
2019-04-20T01:29:27.975Z,34.75
2019-04-20T01:32:09.238Z,31.48
2019-04-20T01:34:47.666Z,33.58
2019-04-20T01:37:27.442Z,28.35
2019-04-20T01:39:55.453Z,31.45
2019-04-20T01:42:30.014Z,32.30
2019-04-20T01:45:16.607Z,34.98
2019-04-20T01:47:49.272Z,30.23
2019-04-20T01:50:27.589Z,28.92
2019-04-20T01:53:12.760Z,30.85
2019-04-20T01:56:00.040Z,29.48
2019-04-20T01:58:55.452Z,28.77
2019-04-20T02:01:31.134Z,28.80
2019-04-20T02:04:25.484Z,29.23
2019-04-20T02:06:59.670Z,30.17
2019-04-20T02:09:37.879Z,30.55
2019-04-20T02:12:18.515Z,32.93
2019-04-20T02:14:55.714Z,28.07
2019-04-20T02:17:35.247Z,31.85
2019-04-20T02:20:27.747Z,31.25
2019-04-20T02:22:59.047Z,28.35
2019-04-20T02:25:26.967Z,33.85
2019-04-20T02:28:22.335Z,29.15
2019-04-20T02:33:58.076Z,27.77
2019-04-20T02:36:58.258Z,29.37
2019-04-20T02:39:30.869Z,33.10
2019-04-20T02:42:08.030Z,26.48
2019-04-20T02:44:47.749Z,27.80
2019-04-20T02:47:21.536Z,26.10
2019-04-20T02:52:44.060Z,34.80
2019-04-20T02:55:18.583Z,30.02
2019-04-20T02:57:52.987Z,34.18
2019-04-20T03:00:22.070Z,33.80
2019-04-20T03:02:46.113Z,26.30
2019-04-20T03:05:25.582Z,33.02
2019-04-20T03:08:08.743Z,28.65
2019-04-20T03:10:52.675Z,28.05
2019-04-20T03:13:27.302Z,29.27
2019-04-20T03:16:04.464Z,25.68
2019-04-20T03:18:39.903Z,25.27
2019-04-20T03:21:24.903Z,30.45
2019-04-20T03:24:06.378Z,32.30
2019-04-20T03:26:52.974Z,37.45
2019-04-20T03:29:51.994Z,29.10
2019-04-20T03:32:57.612Z,27.13
2019-04-20T03:35:28.522Z,36.88
2019-04-20T03:37:52.498Z,32.88
2019-04-20T03:40:25.468Z,32.53
2019-04-20T03:42:48.671Z,31.37
2019-04-20T03:45:26.549Z,31.80
2019-04-20T03:48:12.349Z,30.85
2019-04-20T03:50:56.437Z,36.60
2019-04-20T03:53:39.397Z,31.68
2019-04-20T03:56:42.291Z,33.42
2019-04-20T03:59:56.263Z,30.10
2019-04-20T04:03:08.381Z,29.23
2019-04-20T04:05:50.962Z,30.02
2019-04-20T04:08:24.891Z,37.48
2019-04-20T04:11:12.051Z,35.43
2019-04-20T04:13:29.336Z,28.67
2019-04-20T04:16:10.143Z,35.13
2019-04-20T04:18:48.011Z,31.85
2019-04-20T04:21:42.289Z,29.12
2019-04-20T04:24:13.052Z,29.15
2019-04-20T04:26:51.664Z,30.90
2019-04-20T04:29:40.132Z,29.48
2019-04-20T04:32:20.882Z,27.55
2019-04-20T04:34:48.628Z,30.15
2019-04-20T04:37:28.941Z,27.87
2019-04-20T04:40:14.673Z,26.95
2019-04-20T04:42:46.809Z,33.58
2019-04-20T04:45:07.526Z,30.40
2019-04-20T04:47:41.307Z,29.67
2019-04-20T04:50:24.516Z,28.62
2019-04-20T04:53:04.659Z,28.20
2019-04-20T04:55:43.682Z,31.10
2019-04-20T04:58:12.777Z,31.17
2019-04-20T05:00:51.306Z,35.03
2019-04-20T05:03:47.680Z,35.60
2019-04-20T05:06:26.494Z,24.18
2019-04-20T05:08:55.027Z,28.45
2019-04-20T05:11:29.999Z,29.90
2019-04-20T05:14:10.078Z,32.48
2019-04-20T05:16:58.110Z,27.75
2019-04-20T05:19:42.915Z,30.23
2019-04-20T05:22:25.002Z,29.35
2019-04-20T05:25:18.679Z,32.23
2019-04-20T05:28:00.668Z,27.73
2019-04-20T05:30:20.202Z,29.02
2019-04-20T05:33:06.063Z,26.42
2019-04-20T05:35:59.937Z,26.93
2019-04-20T05:38:37.065Z,30.62
2019-04-20T05:41:11.719Z,26.48
2019-04-20T05:44:12.822Z,27.37
2019-04-20T05:46:59.496Z,27.42
2019-04-20T05:49:44.030Z,33.67
2019-04-20T05:52:26.647Z,26.23
2019-04-20T05:54:51.384Z,21.80
2019-04-20T05:57:31.915Z,23.27
2019-04-20T06:02:46.830Z,25.15
2019-04-20T06:05:28.767Z,30.52
2019-04-20T06:08:00.676Z,28.30
2019-04-20T06:10:45.268Z,21.95
2019-04-20T06:13:38.280Z,22.37
2019-04-20T06:16:45.770Z,25.12
2019-04-20T06:19:31.280Z,28.42
2019-04-20T06:22:31.444Z,26.20
2019-04-20T06:27:59.621Z,27.85
2019-04-20T06:30:31.971Z,21.87
2019-04-20T06:34:08.919Z,23.98
2019-04-20T06:36:32.557Z,25.97
2019-04-20T06:39:08.327Z,28.52
2019-04-20T06:42:02.380Z,26.45
2019-04-20T06:44:32.278Z,24.60
2019-04-20T06:47:15.500Z,27.15
2019-04-20T06:49:38.433Z,26.48
2019-04-20T06:52:27.422Z,20.02
2019-04-20T06:55:14.194Z,22.40
2019-04-20T06:57:56.283Z,22.87
2019-04-20T07:00:32.153Z,25.15
2019-04-20T07:03:26.206Z,22.00
2019-04-20T07:05:50.530Z,22.58
2019-04-20T07:08:45.463Z,19.73
2019-04-20T07:11:11.297Z,18.02
2019-04-20T07:13:30.889Z,18.85
2019-04-20T07:16:31.553Z,17.85
2019-04-20T07:19:07.431Z,19.98
2019-04-20T07:22:15.312Z,18.40
2019-04-20T07:24:40.376Z,19.85
2019-04-20T07:27:13.623Z,18.82
2019-04-20T07:29:52.046Z,18.75
2019-04-20T07:32:23.367Z,15.93
2019-04-20T07:35:08.738Z,16.17
2019-04-20T07:40:35.596Z,17.42
2019-04-20T07:43:02.813Z,18.25
2019-04-20T07:45:43.862Z,16.73
2019-04-20T07:48:38.830Z,19.92
2019-04-20T07:50:55.575Z,16.55
2019-04-20T07:53:37.980Z,21.80
2019-04-20T07:56:25.944Z,17.75
2019-04-20T07:58:46.055Z,16.32
2019-04-20T08:02:01.446Z,17.85
2019-04-20T08:04:36.469Z,22.67
2019-04-20T08:07:05.773Z,19.95
2019-04-20T08:09:49.008Z,21.55
2019-04-20T08:12:58.384Z,21.80
2019-04-20T08:15:36.799Z,20.43
2019-04-20T08:18:02.745Z,17.77
2019-04-20T08:20:41.565Z,16.90
2019-04-20T08:23:17.152Z,18.35
2019-04-20T08:25:47.399Z,19.10
2019-04-20T08:28:28.456Z,19.48
2019-04-20T08:31:24.567Z,17.17
2019-04-20T08:34:20.195Z,15.55
2019-04-20T08:36:52.521Z,20.52
2019-04-20T08:39:46.412Z,20.35
2019-04-20T08:42:10.217Z,19.85
2019-04-20T08:45:00.099Z,19.12
2019-04-20T08:47:48.665Z,21.65
2019-04-20T08:50:21.196Z,20.85
2019-04-20T08:53:12.454Z,18.92
2019-04-20T08:55:29.845Z,19.37
2019-04-20T08:57:57.355Z,20.55
2019-04-20T09:00:42.217Z,21.75
2019-04-20T09:03:18.042Z,19.32
2019-04-20T09:05:59.545Z,21.50
2019-04-20T09:08:36.641Z,20.43
2019-04-20T09:11:21.909Z,20.00
2019-04-20T09:13:50.370Z,21.57
2019-04-20T09:16:31.837Z,21.02
2019-04-20T09:19:07.033Z,20.37
2019-04-20T09:21:45.746Z,19.05
2019-04-20T09:24:35.607Z,23.12
2019-04-20T09:27:08.695Z,17.85
2019-04-20T09:29:42.677Z,18.75
2019-04-20T09:32:33.263Z,21.68
2019-04-20T09:35:13.564Z,17.10
2019-04-20T09:37:53.159Z,20.32
2019-04-20T09:40:35.032Z,17.73
2019-04-20T09:43:16.693Z,18.57
2019-04-20T09:45:57.971Z,24.00
2019-04-20T09:48:36.579Z,20.35
2019-04-20T09:51:27.021Z,20.05
2019-04-20T09:53:56.109Z,24.20
2019-04-20T09:56:35.872Z,20.80
2019-04-20T09:59:19.191Z,17.52
2019-04-20T10:01:45.035Z,19.55
2019-04-20T10:04:17.545Z,20.48
2019-04-20T10:06:55.115Z,18.15
2019-04-20T10:09:37.612Z,21.90
2019-04-20T10:12:11.258Z,17.75
2019-04-20T10:14:49.089Z,18.60
2019-04-20T10:17:28.586Z,19.50
2019-04-20T10:20:11.856Z,22.45
2019-04-20T10:22:40.698Z,18.70
2019-04-20T10:25:18.215Z,20.27
2019-04-20T10:27:53.763Z,21.70
2019-04-20T10:30:32.454Z,19.80
2019-04-20T10:33:08.074Z,19.32
2019-04-20T10:35:45.574Z,35.92
2019-04-20T10:38:27.572Z,22.32
2019-04-20T10:41:13.015Z,23.65
2019-04-20T10:43:44.800Z,21.33
2019-04-20T10:46:22.690Z,22.07
2019-04-20T10:49:02.830Z,19.80
2019-04-20T10:51:35.844Z,24.63
2019-04-20T10:54:12.233Z,21.97
2019-04-20T10:56:49.725Z,19.15
2019-04-20T10:59:27.660Z,21.82
2019-04-20T11:02:05.670Z,23.07
2019-04-20T11:04:42.218Z,25.88
2019-04-20T11:07:18.719Z,26.25
2019-04-20T11:10:10.663Z,20.02
2019-04-20T11:12:35.137Z,25.65
2019-04-20T11:15:12.465Z,23.18
2019-04-20T11:17:49.285Z,25.05
2019-04-20T11:20:28.094Z,26.15
2019-04-20T11:23:06.607Z,25.32
2019-04-20T11:25:44.190Z,24.45
2019-04-20T11:28:21.909Z,24.18
2019-04-20T11:30:58.601Z,27.20
2019-04-20T11:33:36.199Z,21.85
2019-04-20T11:36:13.303Z,32.17
2019-04-20T11:38:51.177Z,24.75
2019-04-20T11:41:29.469Z,28.17
2019-04-20T11:44:05.604Z,32.17
2019-04-20T11:46:42.809Z,25.40
2019-04-20T11:49:19.583Z,32.60
2019-04-20T11:51:57.329Z,35.80
2019-04-20T11:54:34.465Z,34.00
2019-04-20T11:57:11.341Z,31.42
2019-04-20T11:59:48.780Z,26.60
2019-04-20T12:02:39.849Z,27.70
2019-04-20T12:05:24.640Z,33.35
2019-04-20T12:07:58.662Z,36.15
2019-04-20T12:10:37.091Z,37.08
2019-04-20T12:13:14.743Z,34.13
2019-04-20T12:15:51.818Z,30.10
2019-04-20T12:18:29.528Z,32.45
2019-04-20T12:21:05.824Z,32.75
2019-04-20T12:23:42.298Z,37.53
2019-04-20T12:26:18.587Z,36.10
2019-04-20T12:28:55.919Z,30.88
2019-04-20T12:31:33.733Z,47.17
2019-04-20T12:34:13.642Z,41.15
2019-04-20T12:36:51.185Z,43.33
2019-04-20T12:39:29.044Z,40.45
2019-04-20T12:42:08.988Z,42.83
2019-04-20T12:44:43.783Z,37.17
2019-04-20T12:47:21.542Z,50.83
2019-04-20T12:49:59.336Z,48.25
2019-04-20T12:52:36.527Z,49.95
2019-04-20T12:55:14.609Z,43.78
2019-04-20T12:57:52.506Z,55.43
2019-04-20T13:00:37.346Z,53.35
2019-04-20T13:03:13.831Z,47.80
2019-04-20T13:05:51.890Z,55.20
2019-04-20T13:08:33.850Z,51.37
2019-04-20T13:11:12.897Z,56.48
2019-04-20T13:14:18.429Z,57.78
2019-04-20T13:16:56.923Z,52.20
2019-04-20T13:19:33.364Z,57.70
2019-04-20T13:22:10.760Z,51.83
2019-04-20T13:24:49.230Z,54.55
2019-04-20T13:27:27.061Z,50.60
2019-04-20T13:30:05.062Z,46.02
2019-04-20T13:32:41.664Z,50.88
2019-04-20T13:35:20.568Z,46.10
2019-04-20T13:37:56.328Z,46.45
2019-04-20T13:40:33.449Z,45.00
2019-04-20T13:43:11.738Z,48.55
2019-04-20T13:45:48.930Z,50.55
2019-04-20T13:48:25.058Z,44.35
2019-04-20T13:51:02.313Z,38.02
2019-04-20T13:53:39.286Z,43.58
2019-04-20T13:56:17.053Z,37.50
2019-04-20T13:59:09.980Z,36.88
2019-04-20T14:02:02.563Z,38.50
2019-04-20T14:04:44.461Z,40.05
2019-04-20T14:07:22.002Z,37.05
2019-04-20T14:09:59.495Z,29.55
2019-04-20T14:12:39.338Z,29.82
2019-04-20T14:15:15.173Z,35.68
2019-04-20T14:17:53.029Z,29.18
2019-04-20T14:20:29.865Z,37.17
2019-04-20T14:23:07.240Z,30.23
2019-04-20T14:25:45.035Z,28.60
2019-04-20T14:28:22.913Z,25.90
2019-04-20T14:30:58.916Z,29.80
2019-04-20T14:33:36.891Z,28.17
2019-04-20T14:36:14.893Z,31.27
2019-04-20T14:38:52.090Z,26.97
2019-04-20T14:41:30.648Z,32.33
2019-04-20T14:44:08.005Z,27.62
2019-04-20T14:46:45.551Z,26.25
2019-04-20T14:49:22.873Z,29.07
2019-04-20T14:52:01.127Z,30.82
2019-04-20T14:54:37.443Z,29.23
2019-04-20T14:57:13.714Z,26.45
2019-04-20T14:59:55.925Z,30.05
2019-04-20T15:02:34.435Z,31.70
2019-04-20T15:05:10.904Z,28.70
2019-04-20T15:07:47.039Z,31.17
2019-04-20T15:10:24.834Z,28.73
2019-04-20T15:13:04.539Z,29.70
2019-04-20T15:15:38.817Z,32.03
2019-04-20T15:18:15.604Z,28.20
2019-04-20T15:20:55.424Z,30.62
2019-04-20T15:23:31.597Z,29.12
2019-04-20T15:26:08.693Z,28.60
2019-04-20T15:28:46.241Z,28.92
2019-04-20T15:31:23.807Z,30.97
2019-04-20T15:34:01.231Z,27.30
2019-04-20T15:36:38.118Z,30.65
2019-04-20T15:39:14.900Z,30.77
2019-04-20T15:41:51.590Z,35.08
2019-04-20T15:44:29.210Z,32.58
2019-04-20T15:47:05.019Z,28.27
2019-04-20T15:49:42.004Z,29.80
2019-04-20T15:52:24.555Z,24.60
2019-04-20T15:54:56.446Z,27.58
2019-04-20T15:57:34.438Z,26.33
2019-04-20T16:00:11.271Z,21.95
2019-04-20T16:02:54.644Z,22.32
2019-04-20T16:05:38.250Z,24.15
2019-04-20T16:08:34.398Z,28.98
2019-04-20T16:11:11.236Z,24.25
2019-04-20T16:13:53.396Z,23.15
2019-04-20T16:16:27.745Z,25.23
2019-04-20T16:19:14.277Z,24.92
2019-04-20T16:21:43.811Z,23.50
2019-04-20T16:24:22.333Z,26.95
2019-04-20T16:27:29.695Z,23.45
2019-04-20T16:30:07.552Z,24.80
2019-04-20T16:32:45.408Z,22.73
2019-04-20T16:35:22.561Z,25.85
2019-04-20T16:37:58.260Z,28.02
2019-04-20T16:40:37.719Z,31.10
2019-04-20T16:43:21.073Z,31.17
2019-04-20T16:45:52.918Z,30.70
2019-04-20T16:48:30.388Z,29.95
2019-04-20T16:51:09.004Z,26.87
2019-04-20T16:53:47.836Z,28.10
2019-04-20T16:56:24.472Z,26.75
2019-04-20T16:59:07.051Z,28.98
2019-04-20T17:01:40.235Z,28.67
2019-04-20T17:04:21.838Z,28.62
2019-04-20T17:07:12.469Z,26.73
2019-04-20T17:09:51.724Z,25.32
2019-04-20T17:12:29.979Z,27.77
2019-04-20T17:15:07.550Z,34.35
2019-04-20T17:17:46.628Z,32.70
2019-04-20T17:20:25.733Z,27.02
2019-04-20T17:23:06.119Z,33.33
2019-04-20T17:25:41.817Z,30.80
2019-04-20T17:28:49.018Z,33.98
2019-04-20T17:31:37.648Z,30.82
2019-04-20T17:34:35.941Z,34.30
2019-04-20T17:36:54.626Z,35.55
2019-04-20T17:39:45.316Z,29.67
2019-04-20T17:42:25.101Z,27.07
2019-04-20T17:44:56.348Z,32.78
2019-04-20T17:47:44.544Z,29.37
2019-04-20T17:50:27.035Z,31.57
2019-04-20T17:52:59.595Z,33.48
2019-04-20T17:55:40.440Z,30.48
2019-04-20T17:58:14.315Z,31.27
2019-04-20T18:01:31.101Z,31.37
2019-04-20T18:04:24.453Z,29.60
2019-04-20T18:06:43.668Z,32.60
2019-04-20T18:09:34.472Z,30.32
2019-04-20T18:11:52.796Z,30.82
2019-04-20T18:14:43.287Z,31.27
2019-04-20T18:17:32.449Z,31.48
2019-04-20T18:20:05.230Z,30.97
2019-04-20T18:22:44.125Z,32.15
2019-04-20T18:25:53.309Z,34.85
2019-04-20T18:28:13.722Z,31.85
2019-04-20T18:30:59.014Z,32.25
2019-04-20T18:33:35.247Z,35.48
2019-04-20T18:36:13.380Z,33.55
2019-04-20T18:38:57.515Z,31.27
2019-04-20T18:41:38.482Z,31.20
2019-04-20T18:44:08.596Z,34.70
2019-04-20T18:47:06.446Z,36.53
2019-04-20T18:49:37.516Z,30.23
2019-04-20T18:52:00.069Z,30.75
2019-04-20T18:54:41.996Z,31.95
2019-04-20T18:57:21.330Z,33.53
2019-04-20T18:59:56.837Z,30.60
2019-04-20T19:02:38.855Z,34.03
2019-04-20T19:05:13.705Z,33.28
2019-04-20T19:07:57.902Z,29.85
2019-04-20T19:10:32.827Z,34.70
2019-04-20T19:13:26.688Z,31.07
2019-04-20T19:16:22.713Z,34.15
2019-04-20T19:19:23.529Z,29.30
2019-04-20T19:21:48.392Z,34.60
2019-04-20T19:24:29.156Z,36.77
2019-04-20T19:27:06.619Z,36.20
2019-04-20T19:29:50.607Z,32.80
2019-04-20T19:32:38.485Z,37.33
2019-04-20T19:35:06.840Z,33.63
2019-04-20T19:37:51.633Z,34.15
2019-04-20T19:40:24.799Z,38.65
2019-04-20T19:43:08.485Z,31.95
2019-04-20T19:45:55.262Z,33.88
2019-04-20T19:48:24.108Z,29.77
2019-04-20T19:51:11.361Z,37.65
2019-04-20T19:53:48.320Z,33.90
2019-04-20T19:56:17.076Z,33.18
2019-04-20T19:59:01.253Z,36.00
2019-04-20T20:01:22.015Z,35.92
2019-04-20T20:04:02.252Z,34.25
2019-04-20T20:06:43.616Z,33.78
2019-04-20T20:09:16.422Z,31.42
2019-04-20T20:11:57.217Z,29.35
2019-04-20T20:14:36.386Z,32.03
2019-04-20T20:17:32.960Z,38.58
2019-04-20T20:20:14.640Z,37.38
2019-04-20T20:22:32.236Z,35.88
2019-04-20T20:25:03.376Z,35.68
2019-04-20T20:27:49.508Z,32.95
2019-04-20T20:30:27.638Z,34.20
2019-04-20T20:33:14.981Z,34.05
2019-04-20T20:35:45.478Z,40.28
2019-04-20T20:38:22.545Z,39.50
2019-04-20T20:41:05.801Z,37.00
2019-04-20T20:43:45.730Z,38.33
2019-04-20T20:46:19.692Z,35.92
2019-04-20T20:49:16.717Z,33.33
2019-04-20T20:52:04.264Z,36.20
2019-04-20T20:54:11.432Z,34.48
2019-04-20T20:56:49.764Z,36.45
2019-04-20T20:59:30.480Z,34.65
2019-04-20T21:02:06.886Z,37.50
2019-04-20T21:04:35.426Z,34.75
2019-04-20T21:07:12.878Z,34.55
2019-04-20T21:09:50.432Z,33.18
2019-04-20T21:12:28.694Z,36.40
2019-04-20T21:15:10.600Z,41.05
2019-04-20T21:18:08.366Z,32.88
2019-04-20T21:20:49.250Z,33.53
2019-04-20T21:23:23.910Z,36.75
2019-04-20T21:26:23.105Z,36.58
2019-04-20T21:28:52.230Z,34.83
2019-04-20T21:31:29.714Z,36.30
2019-04-20T21:34:09.745Z,40.65
2019-04-20T21:36:45.035Z,40.12
2019-04-20T21:39:33.617Z,39.10
2019-04-20T21:42:06.456Z,36.35
2019-04-20T21:44:42.925Z,36.15
2019-04-20T21:47:24.667Z,34.85
2019-04-20T21:50:15.398Z,41.60
2019-04-20T21:52:39.250Z,41.92
2019-04-20T21:55:12.126Z,39.35
2019-04-20T21:57:53.891Z,41.18
2019-04-20T22:01:08.092Z,40.80
2019-04-20T22:03:36.299Z,42.23
2019-04-20T22:06:14.555Z,42.85
2019-04-20T22:08:56.907Z,44.88
2019-04-20T22:11:29.681Z,40.92
2019-04-20T22:14:11.705Z,40.12
2019-04-20T22:16:49.169Z,44.67
2019-04-20T22:19:34.310Z,45.95
2019-04-20T22:22:11.702Z,40.12
2019-04-20T22:24:55.714Z,61.42
2019-04-20T22:27:23.657Z,86.02
2019-04-20T22:29:56.226Z,121.97
2019-04-20T22:32:32.245Z,111.17
2019-04-20T22:35:14.162Z,138.68
2019-04-20T22:38:07.695Z,112.57
2019-04-20T22:40:40.677Z,70.57
2019-04-20T22:43:24.043Z,56.95
2019-04-20T22:45:57.135Z,66.62
2019-04-20T22:48:37.388Z,62.43
2019-04-20T22:51:25.897Z,59.75
2019-04-20T22:54:10.963Z,54.75
2019-04-20T22:56:43.257Z,53.78
2019-04-20T22:59:13.903Z,61.70
2019-04-20T23:01:52.083Z,58.95
2019-04-20T23:04:24.940Z,56.13
2019-04-20T23:07:03.111Z,55.58
2019-04-20T23:09:47.612Z,51.53
2019-04-20T23:12:22.550Z,47.45
2019-04-20T23:14:56.480Z,54.35
2019-04-20T23:17:38.707Z,48.33
2019-04-20T23:20:17.402Z,58.75
2019-04-20T23:22:51.156Z,56.15
2019-04-20T23:25:27.127Z,47.30
2019-04-20T23:28:09.534Z,54.30
2019-04-20T23:30:42.383Z,53.87
2019-04-20T23:33:20.170Z,57.83
2019-04-20T23:35:59.860Z,49.75
2019-04-20T23:38:36.742Z,52.67
2019-04-20T23:41:15.402Z,58.85
2019-04-20T23:44:04.018Z,55.92
2019-04-20T23:47:09.756Z,51.63
2019-04-20T23:49:58.025Z,53.15
2019-04-20T23:52:42.885Z,50.70
2019-04-20T23:55:04.034Z,55.30
2019-04-20T23:57:35.579Z,50.38
